createdAt,value
2023-05-13T00:00:31.407Z,15.60
2023-05-13T00:01:31.349Z,14.80
2023-05-13T00:02:31.375Z,15.70
2023-05-13T00:03:31.440Z,15.70
2023-05-13T00:04:31.309Z,15.80
2023-05-13T00:05:31.314Z,15.80
2023-05-13T00:06:31.358Z,15.80
2023-05-13T00:07:31.295Z,15.50
2023-05-13T00:08:31.292Z,14.70
2023-05-13T00:09:31.248Z,16.40
2023-05-13T00:10:31.250Z,15.80
2023-05-13T00:11:31.206Z,15.20
2023-05-13T00:12:31.235Z,16.30
2023-05-13T00:13:31.234Z,17.00
2023-05-13T00:14:31.209Z,16.90
2023-05-13T00:15:31.175Z,17.20
2023-05-13T00:16:31.159Z,16.90
2023-05-13T00:17:31.133Z,15.20
2023-05-13T00:18:31.257Z,17.00
2023-05-13T00:19:31.168Z,16.60
2023-05-13T00:20:31.143Z,17.20
2023-05-13T00:21:31.074Z,17.50
2023-05-13T00:22:31.064Z,16.30
2023-05-13T00:23:31.087Z,17.40
2023-05-13T00:24:31.083Z,17.80
2023-05-13T00:25:31.014Z,18.50
2023-05-13T00:26:31.012Z,18.20
2023-05-13T00:27:30.979Z,19.30
2023-05-13T00:28:30.978Z,18.50
2023-05-13T00:29:30.981Z,18.50
2023-05-13T00:30:51.998Z,17.00
2023-05-13T00:31:30.979Z,16.20
2023-05-13T00:32:31.038Z,16.60
2023-05-13T00:33:30.902Z,17.90
2023-05-13T00:34:30.901Z,16.30
2023-05-13T00:35:30.872Z,16.70
2023-05-13T00:36:30.867Z,16.20
2023-05-13T00:37:30.851Z,16.50
2023-05-13T00:38:30.830Z,13.80
2023-05-13T00:39:30.802Z,16.00
2023-05-13T00:40:30.788Z,15.40
2023-05-13T00:41:30.787Z,16.50
2023-05-13T00:42:30.764Z,16.70
2023-05-13T00:43:30.810Z,16.00
2023-05-13T00:44:30.765Z,15.90
2023-05-13T00:45:30.776Z,16.50
2023-05-13T00:46:30.749Z,16.40
2023-05-13T00:47:30.734Z,16.40
2023-05-13T00:48:30.693Z,16.90
2023-05-13T00:49:30.666Z,16.60
2023-05-13T00:50:30.644Z,18.00
2023-05-13T00:51:30.645Z,16.40
2023-05-13T00:52:30.686Z,17.70
2023-05-13T00:53:30.667Z,15.70
2023-05-13T00:54:30.652Z,17.20
2023-05-13T00:55:30.582Z,17.10
2023-05-13T00:56:30.557Z,16.40
2023-05-13T00:57:30.541Z,16.70
2023-05-13T00:58:30.579Z,16.40
2023-05-13T00:59:30.544Z,16.30
2023-05-13T01:00:30.507Z,17.30
2023-05-13T01:01:30.496Z,16.90
2023-05-13T01:02:30.533Z,17.30
2023-05-13T01:03:30.489Z,17.00
2023-05-13T01:04:30.481Z,17.10
2023-05-13T01:05:30.430Z,17.40
2023-05-13T01:06:30.459Z,17.60
2023-05-13T01:07:30.436Z,18.40
2023-05-13T01:08:30.402Z,19.50
2023-05-13T01:09:30.435Z,18.90
2023-05-13T01:10:30.380Z,18.10
2023-05-13T01:11:30.354Z,18.20
2023-05-13T01:12:30.402Z,18.20
2023-05-13T01:13:30.345Z,19.40
2023-05-13T01:14:30.322Z,19.30
2023-05-13T01:15:30.426Z,18.20
2023-05-13T01:16:30.346Z,18.30
2023-05-13T01:17:30.326Z,18.70
2023-05-13T01:18:30.271Z,17.90
2023-05-13T01:19:30.254Z,17.70
2023-05-13T01:20:30.248Z,17.80
2023-05-13T01:21:30.265Z,17.50
2023-05-13T01:22:30.213Z,19.00
2023-05-13T01:23:30.178Z,18.60
2023-05-13T01:24:30.310Z,17.80
2023-05-13T01:25:30.173Z,17.50
2023-05-13T01:26:30.161Z,18.10
2023-05-13T01:27:38.871Z,18.40
2023-05-13T01:28:30.188Z,18.60
2023-05-13T01:29:30.230Z,18.50
2023-05-13T01:30:30.185Z,17.90
2023-05-13T01:31:30.137Z,18.00
2023-05-13T01:32:30.143Z,18.10
2023-05-13T01:33:30.063Z,18.20
2023-05-13T01:34:30.071Z,18.40
2023-05-13T01:35:30.652Z,17.60
2023-05-13T01:36:30.028Z,18.30
2023-05-13T01:37:37.341Z,18.30
2023-05-13T01:38:46.555Z,18.10
2023-05-13T01:39:43.541Z,18.60
2023-05-13T01:40:32.360Z,18.40
2023-05-13T01:41:29.969Z,18.80
2023-05-13T01:42:29.986Z,18.20
2023-05-13T01:43:29.928Z,17.80
2023-05-13T01:44:29.957Z,16.90
2023-05-13T01:45:29.983Z,16.60
2023-05-13T01:46:29.983Z,17.00
2023-05-13T01:47:29.988Z,16.90
2023-05-13T01:48:29.887Z,17.10
2023-05-13T01:49:29.833Z,16.60
2023-05-13T01:50:29.847Z,16.20
2023-05-13T01:51:29.805Z,16.60
2023-05-13T01:52:29.802Z,17.10
2023-05-13T01:53:29.779Z,16.10
2023-05-13T01:54:29.784Z,16.90
2023-05-13T01:55:29.982Z,15.50
2023-05-13T01:56:29.750Z,16.20
2023-05-13T01:57:29.744Z,15.20
2023-05-13T01:58:29.728Z,14.70
2023-05-13T01:59:29.703Z,15.60
2023-05-13T02:00:29.682Z,15.40
2023-05-13T02:01:29.788Z,15.70
2023-05-13T02:02:29.672Z,14.90
2023-05-13T02:03:29.734Z,15.90
2023-05-13T02:04:29.618Z,16.10
2023-05-13T02:05:29.599Z,16.30
2023-05-13T02:06:29.668Z,16.30
2023-05-13T02:07:29.706Z,16.30
2023-05-13T02:08:29.580Z,16.60
2023-05-13T02:09:29.570Z,16.50
2023-05-13T02:10:29.570Z,16.30
2023-05-13T02:11:29.524Z,16.60
2023-05-13T02:12:29.524Z,15.90
2023-05-13T02:13:29.506Z,16.30
2023-05-13T02:14:29.599Z,16.00
2023-05-13T02:15:29.480Z,16.20
2023-05-13T02:16:29.613Z,16.50
2023-05-13T02:17:29.657Z,15.80
2023-05-13T02:18:29.473Z,16.10
2023-05-13T02:19:29.641Z,15.60
2023-05-13T02:20:29.472Z,16.10
2023-05-13T02:21:29.480Z,15.40
2023-05-13T02:22:29.469Z,15.70
2023-05-13T02:23:29.393Z,15.90
2023-05-13T02:24:29.400Z,15.70
2023-05-13T02:25:29.396Z,15.30
2023-05-13T02:26:29.336Z,15.10
2023-05-13T02:27:29.325Z,15.20
2023-05-13T02:28:29.334Z,15.30
2023-05-13T02:29:29.343Z,14.60
2023-05-13T02:30:29.262Z,14.40
2023-05-13T02:31:29.372Z,14.60
2023-05-13T02:32:29.271Z,15.30
2023-05-13T02:33:29.261Z,15.40
2023-05-13T02:34:29.283Z,15.20
2023-05-13T02:35:29.251Z,15.00
2023-05-13T02:36:29.190Z,15.10
2023-05-13T02:37:29.250Z,15.40
2023-05-13T02:38:29.182Z,15.50
2023-05-13T02:39:29.174Z,15.70
2023-05-13T02:40:29.131Z,15.50
2023-05-13T02:41:29.419Z,16.00
2023-05-13T02:42:29.290Z,15.60
2023-05-13T02:43:29.488Z,16.10
2023-05-13T02:44:29.156Z,15.40
2023-05-13T02:45:29.236Z,15.90
2023-05-13T02:46:29.225Z,15.10
2023-05-13T02:47:29.394Z,16.80
2023-05-13T02:48:29.586Z,16.50
2023-05-13T02:49:29.379Z,17.60
2023-05-13T02:50:29.466Z,18.00
2023-05-13T02:51:29.349Z,17.50
2023-05-13T02:52:29.458Z,17.60
2023-05-13T02:53:29.577Z,17.70
2023-05-13T02:54:29.283Z,17.40
2023-05-13T02:55:29.257Z,16.80
2023-05-13T02:56:28.951Z,17.40
2023-05-13T02:57:29.315Z,17.10
2023-05-13T02:58:29.221Z,17.70
2023-05-13T02:59:33.393Z,17.60
2023-05-13T03:00:31.087Z,18.20
2023-05-13T03:01:29.771Z,18.40
2023-05-13T03:02:31.151Z,18.70
2023-05-13T03:03:29.513Z,18.80
2023-05-13T03:04:29.676Z,17.40
2023-05-13T03:05:30.008Z,17.50
2023-05-13T03:06:29.344Z,18.30
2023-05-13T03:07:29.595Z,19.00
2023-05-13T03:08:29.844Z,17.40
2023-05-13T03:09:29.828Z,18.90
2023-05-13T03:10:30.034Z,18.40
2023-05-13T03:11:29.356Z,17.50
2023-05-13T03:12:28.937Z,17.90
2023-05-13T03:13:28.993Z,17.40
2023-05-13T03:14:29.337Z,18.00
2023-05-13T03:15:28.830Z,17.60
2023-05-13T03:16:28.969Z,19.10
2023-05-13T03:17:29.900Z,17.20
2023-05-13T03:18:29.081Z,18.50
2023-05-13T03:19:29.236Z,18.10
2023-05-13T03:20:28.817Z,17.40
2023-05-13T03:21:28.713Z,17.80
2023-05-13T03:22:28.829Z,16.90
2023-05-13T03:23:28.810Z,16.60
2023-05-13T03:24:28.857Z,16.50
2023-05-13T03:25:28.676Z,16.30
2023-05-13T03:26:28.747Z,16.10
2023-05-13T03:27:28.598Z,16.50
2023-05-13T03:28:29.194Z,15.30
2023-05-13T03:29:28.866Z,15.30
2023-05-13T03:30:29.255Z,15.30
2023-05-13T03:31:28.551Z,15.30
2023-05-13T03:32:28.805Z,14.20
2023-05-13T03:33:28.765Z,15.00
2023-05-13T03:34:39.678Z,14.60
2023-05-13T03:35:36.660Z,14.70
2023-05-13T03:36:41.603Z,15.40
2023-05-13T03:37:41.261Z,15.80
2023-05-13T03:40:23.660Z,16.30
2023-05-13T03:41:18.508Z,17.40
2023-05-13T03:42:16.532Z,17.10
2023-05-13T03:43:16.934Z,17.60
2023-05-13T03:44:16.548Z,17.40
2023-05-13T03:45:16.596Z,16.30
2023-05-13T03:46:17.395Z,16.60
2023-05-13T03:47:16.616Z,17.40
2023-05-13T03:48:16.728Z,16.10
2023-05-13T03:49:17.721Z,16.30
2023-05-13T03:50:16.426Z,16.20
2023-05-13T03:51:16.505Z,15.90
2023-05-13T03:52:16.664Z,16.10
2023-05-13T03:53:16.643Z,16.20
2023-05-13T03:54:16.750Z,15.80
2023-05-13T03:55:16.453Z,16.00
2023-05-13T03:56:16.851Z,16.60
2023-05-13T03:57:17.959Z,16.00
2023-05-13T03:58:16.394Z,16.00
2023-05-13T03:59:16.310Z,16.60
2023-05-13T04:00:16.557Z,18.00
2023-05-13T04:01:17.418Z,17.40
2023-05-13T04:02:16.396Z,16.70
2023-05-13T04:03:16.540Z,17.60
2023-05-13T04:04:16.399Z,16.30
2023-05-13T04:05:16.694Z,17.10
2023-05-13T04:06:16.369Z,16.90
2023-05-13T04:07:16.481Z,16.70
2023-05-13T04:08:16.471Z,16.90
2023-05-13T04:09:17.460Z,17.70
2023-05-13T04:10:16.235Z,17.50
2023-05-13T04:11:16.582Z,17.80
2023-05-13T04:12:18.685Z,17.70
2023-05-13T04:13:16.114Z,17.80
2023-05-13T04:14:16.577Z,17.10
2023-05-13T04:15:16.099Z,17.70
2023-05-13T04:16:16.641Z,18.30
2023-05-13T04:17:16.213Z,18.90
2023-05-13T04:18:18.984Z,17.30
2023-05-13T04:19:16.493Z,19.40
2023-05-13T04:20:16.224Z,20.40
2023-05-13T04:21:16.083Z,18.30
2023-05-13T04:22:16.229Z,19.20
2023-05-13T04:23:16.175Z,20.30
2023-05-13T04:24:16.364Z,18.50
2023-05-13T04:25:16.518Z,21.20
2023-05-13T04:26:16.432Z,18.30
2023-05-13T04:27:15.949Z,19.60
2023-05-13T04:28:16.059Z,19.80
2023-05-13T04:29:16.162Z,19.90
2023-05-13T04:30:15.911Z,21.40
2023-05-13T04:31:16.228Z,21.20
2023-05-13T04:32:16.240Z,20.30
2023-05-13T04:33:17.079Z,19.40
2023-05-13T04:34:16.933Z,20.60
2023-05-13T04:35:15.823Z,18.70
2023-05-13T04:36:15.901Z,20.50
2023-05-13T04:37:16.020Z,18.60
2023-05-13T04:38:16.186Z,21.40
2023-05-13T04:39:16.036Z,20.20
2023-05-13T04:40:16.981Z,19.10
2023-05-13T04:41:15.810Z,19.70
2023-05-13T04:42:16.081Z,19.20
2023-05-13T04:43:15.687Z,20.60
2023-05-13T04:44:15.565Z,20.10
2023-05-13T04:45:15.831Z,19.80
2023-05-13T04:46:16.194Z,19.60
2023-05-13T04:47:15.779Z,21.00
2023-05-13T04:48:16.432Z,19.90
2023-05-13T04:49:15.918Z,20.80
2023-05-13T04:50:16.106Z,20.40
2023-05-13T04:51:16.117Z,19.80
2023-05-13T04:52:15.855Z,20.50
2023-05-13T04:53:15.721Z,19.70
2023-05-13T04:54:15.672Z,20.30
2023-05-13T04:55:16.022Z,20.00
2023-05-13T04:56:15.874Z,20.10
2023-05-13T04:57:15.342Z,19.30
2023-05-13T04:58:15.584Z,18.40
2023-05-13T04:59:15.492Z,18.80
2023-05-13T05:00:15.672Z,20.10
2023-05-13T05:01:15.593Z,19.00
2023-05-13T05:02:15.307Z,18.40
2023-05-13T05:03:16.009Z,18.70
2023-05-13T05:04:15.648Z,18.70
2023-05-13T05:05:18.271Z,19.10
2023-05-13T05:06:15.584Z,18.80
2023-05-13T05:07:15.351Z,19.50
2023-05-13T05:08:15.756Z,19.50
2023-05-13T05:09:17.115Z,19.40
2023-05-13T05:10:15.418Z,19.60
2023-05-13T05:11:15.351Z,19.60
2023-05-13T05:12:15.242Z,19.90
2023-05-13T05:13:15.540Z,20.40
2023-05-13T05:14:15.709Z,18.70
2023-05-13T05:15:16.607Z,19.00
2023-05-13T05:16:16.378Z,18.80
2023-05-13T05:17:15.733Z,19.40
2023-05-13T05:18:15.619Z,19.10
2023-05-13T05:19:17.494Z,18.70
2023-05-13T05:20:15.037Z,18.90
2023-05-13T05:21:15.225Z,17.70
2023-05-13T05:22:15.200Z,18.40
2023-05-13T05:23:15.266Z,18.60
2023-05-13T05:24:15.192Z,18.40
2023-05-13T05:25:15.055Z,18.20
2023-05-13T05:26:15.139Z,18.20
2023-05-13T05:27:15.106Z,17.50
2023-05-13T05:28:15.416Z,17.30
2023-05-13T05:29:14.919Z,17.00
2023-05-13T05:30:15.489Z,17.10
2023-05-13T05:31:15.166Z,16.70
2023-05-13T05:32:14.944Z,17.30
2023-05-13T05:33:15.277Z,16.00
2023-05-13T05:34:15.084Z,15.80
2023-05-13T05:35:15.013Z,16.00
2023-05-13T05:36:15.138Z,15.50
2023-05-13T05:37:15.014Z,15.00
2023-05-13T05:38:15.174Z,15.00
2023-05-13T05:39:14.892Z,13.90
2023-05-13T05:40:15.091Z,14.30
2023-05-13T05:41:16.055Z,13.60
2023-05-13T05:42:14.814Z,13.80
2023-05-13T05:43:14.933Z,13.50
2023-05-13T05:44:14.975Z,13.00
2023-05-13T05:45:14.650Z,13.10
2023-05-13T05:46:15.069Z,13.00
2023-05-13T05:47:14.656Z,12.90
2023-05-13T05:48:15.141Z,12.50
2023-05-13T05:49:14.651Z,12.90
2023-05-13T05:50:14.599Z,12.20
2023-05-13T05:51:14.927Z,13.50
2023-05-13T05:52:14.658Z,12.90
2023-05-13T05:53:14.855Z,11.60
2023-05-13T05:54:14.760Z,11.90
2023-05-13T05:55:14.540Z,12.20
2023-05-13T05:56:14.854Z,12.10
2023-05-13T05:57:14.549Z,12.10
2023-05-13T05:58:14.541Z,12.10
2023-05-13T05:59:14.630Z,12.00
2023-05-13T06:00:14.760Z,11.20
2023-05-13T06:01:14.493Z,12.00
2023-05-13T06:02:14.820Z,11.30
2023-05-13T06:03:15.223Z,11.80
2023-05-13T06:04:14.512Z,11.50
2023-05-13T06:05:14.565Z,11.80
2023-05-13T06:06:14.433Z,11.30
2023-05-13T06:07:14.623Z,10.60
2023-05-13T06:08:14.354Z,9.50
2023-05-13T06:09:15.096Z,10.20
2023-05-13T06:10:14.583Z,10.20
2023-05-13T06:11:14.479Z,9.40
2023-05-13T06:12:14.919Z,9.50
2023-05-13T06:13:14.538Z,10.20
2023-05-13T06:14:14.444Z,9.90
2023-05-13T06:15:14.858Z,10.30
2023-05-13T06:16:14.500Z,10.10
2023-05-13T06:17:14.405Z,9.30
2023-05-13T06:18:14.447Z,8.80
2023-05-13T06:19:14.469Z,9.50
2023-05-13T06:20:14.633Z,9.30
2023-05-13T06:21:14.533Z,9.50
2023-05-13T06:22:14.518Z,9.30
2023-05-13T06:23:14.280Z,8.90
2023-05-13T06:24:14.270Z,9.80
2023-05-13T06:25:14.273Z,9.80
2023-05-13T06:26:14.529Z,9.60
2023-05-13T06:27:14.306Z,9.90
2023-05-13T06:28:14.558Z,9.60
2023-05-13T06:29:14.189Z,10.00
2023-05-13T06:30:14.214Z,9.90
2023-05-13T06:31:14.287Z,9.70
2023-05-13T06:32:14.226Z,9.70
2023-05-13T06:33:14.661Z,10.10
2023-05-13T06:34:14.172Z,9.80
2023-05-13T06:35:14.455Z,8.80
2023-05-13T06:36:14.101Z,9.20
2023-05-13T06:37:14.186Z,8.90
2023-05-13T06:38:14.310Z,8.80
2023-05-13T06:39:14.138Z,9.30
2023-05-13T06:40:14.249Z,9.00
2023-05-13T06:41:14.072Z,9.20
2023-05-13T06:42:14.400Z,9.30
2023-05-13T06:43:14.335Z,9.00
2023-05-13T06:44:14.056Z,9.30
2023-05-13T06:45:13.976Z,8.20
2023-05-13T06:46:14.088Z,9.10
2023-05-13T06:47:14.008Z,9.00
2023-05-13T06:48:14.110Z,8.00
2023-05-13T06:49:13.860Z,8.00
2023-05-13T06:50:14.087Z,7.90
2023-05-13T06:51:13.911Z,8.50
2023-05-13T06:52:14.012Z,8.00
2023-05-13T06:53:14.236Z,8.60
2023-05-13T06:54:14.942Z,8.40
2023-05-13T06:55:13.906Z,8.90
2023-05-13T06:56:13.909Z,9.40
2023-05-13T06:57:13.662Z,8.10
2023-05-13T06:58:13.993Z,8.30
2023-05-13T06:59:14.502Z,7.50
2023-05-13T07:00:13.763Z,8.50
2023-05-13T07:01:14.084Z,8.00
2023-05-13T07:02:13.796Z,8.10
2023-05-13T07:03:13.772Z,8.40
2023-05-13T07:04:13.625Z,7.50
2023-05-13T07:05:13.550Z,7.60
2023-05-13T07:06:13.552Z,7.40
2023-05-13T07:07:13.601Z,7.50
2023-05-13T07:08:14.263Z,8.30
2023-05-13T07:09:13.745Z,7.80
2023-05-13T07:10:13.615Z,7.80
2023-05-13T07:11:13.601Z,7.60
2023-05-13T07:12:13.649Z,7.70
2023-05-13T07:13:13.509Z,7.40
2023-05-13T07:14:13.441Z,6.70
2023-05-13T07:15:13.532Z,6.70
2023-05-13T07:16:13.423Z,6.20
2023-05-13T07:17:13.752Z,6.50
2023-05-13T07:18:13.535Z,6.40
2023-05-13T07:19:13.413Z,6.40
2023-05-13T07:20:14.081Z,6.60
2023-05-13T07:21:13.517Z,7.40
2023-05-13T07:22:13.575Z,7.50
2023-05-13T07:23:13.420Z,8.10
2023-05-13T07:24:13.551Z,8.20
2023-05-13T07:25:13.439Z,8.10
2023-05-13T07:26:13.332Z,8.20
2023-05-13T07:27:13.452Z,8.20
2023-05-13T07:28:13.378Z,8.40
2023-05-13T07:29:13.276Z,9.00
2023-05-13T07:30:13.229Z,8.70
2023-05-13T07:31:13.316Z,9.00
2023-05-13T07:32:13.198Z,9.10
2023-05-13T07:33:13.384Z,9.20
2023-05-13T07:34:13.624Z,9.10
2023-05-13T07:35:13.804Z,8.90
2023-05-13T07:36:14.228Z,9.00
2023-05-13T07:37:13.628Z,8.40
2023-05-13T07:38:13.303Z,8.80
2023-05-13T07:39:13.423Z,8.50
2023-05-13T07:40:15.755Z,8.60
2023-05-13T07:41:13.371Z,7.80
2023-05-13T07:42:13.642Z,8.10
2023-05-13T07:43:13.515Z,7.60
2023-05-13T07:44:13.416Z,7.70
2023-05-13T07:45:14.756Z,8.20
2023-05-13T07:46:15.017Z,7.90
2023-05-13T07:47:13.776Z,8.00
2023-05-13T07:48:13.133Z,7.60
2023-05-13T07:49:13.475Z,7.80
2023-05-13T07:50:13.092Z,8.20
2023-05-13T07:51:13.742Z,8.30
2023-05-13T07:52:13.070Z,8.30
2023-05-13T07:53:16.159Z,7.90
2023-05-13T07:56:46.714Z,8.40
2023-05-13T07:57:45.879Z,8.80
2023-05-13T07:58:45.787Z,8.30
2023-05-13T07:59:45.801Z,8.30
2023-05-13T08:01:59.671Z,8.20
2023-05-13T08:03:00.524Z,8.00
2023-05-13T08:03:58.725Z,7.60
2023-05-13T08:04:58.259Z,7.80
2023-05-13T08:05:57.952Z,8.20
2023-05-13T08:06:57.834Z,8.10
2023-05-13T08:07:57.967Z,7.70
2023-05-13T08:08:58.879Z,6.60
2023-05-13T08:09:58.796Z,7.30
2023-05-13T08:10:57.785Z,7.70
2023-05-13T08:13:29.440Z,7.70
2023-05-13T08:14:27.849Z,7.50
2023-05-13T08:15:27.888Z,7.20
2023-05-13T08:16:27.898Z,6.70
2023-05-13T08:17:27.855Z,6.70
2023-05-13T08:18:27.659Z,6.70
2023-05-13T08:19:28.741Z,6.60
2023-05-13T08:20:27.571Z,6.30
2023-05-13T08:21:27.694Z,6.10
2023-05-13T08:22:27.750Z,6.40
2023-05-13T08:23:40.919Z,6.50
2023-05-13T08:24:29.926Z,6.80
2023-05-13T08:25:30.768Z,6.30
2023-05-13T08:26:32.995Z,6.80
2023-05-13T08:27:30.631Z,6.70
2023-05-13T08:28:30.501Z,6.70
2023-05-13T08:29:28.129Z,5.70
2023-05-13T08:30:27.627Z,5.00
2023-05-13T08:31:28.148Z,4.40
2023-05-13T08:32:28.017Z,4.40
2023-05-13T08:33:29.571Z,4.10
2023-05-13T08:34:28.635Z,4.40
2023-05-13T08:35:29.069Z,4.60
2023-05-13T08:36:29.057Z,4.70
2023-05-13T08:37:28.971Z,4.50
2023-05-13T08:38:28.307Z,4.60
2023-05-13T08:39:29.554Z,4.30
2023-05-13T08:40:31.648Z,4.50
2023-05-13T08:41:32.220Z,4.00
2023-05-13T08:42:28.886Z,4.30
2023-05-13T08:43:34.825Z,4.00
2023-05-13T08:44:30.098Z,4.60
2023-05-13T08:45:28.456Z,4.20
2023-05-13T08:46:29.127Z,4.50
2023-05-13T08:47:29.659Z,4.60
2023-05-13T08:48:31.178Z,4.00
2023-05-13T08:49:29.787Z,4.50
2023-05-13T08:50:27.280Z,4.50
2023-05-13T08:51:51.540Z,4.40
2023-05-13T08:52:29.702Z,4.30
2023-05-13T08:53:27.998Z,4.50
2023-05-13T08:54:28.157Z,4.60
2023-05-13T08:55:27.198Z,4.20
2023-05-13T08:56:27.693Z,4.40
2023-05-13T08:57:28.639Z,4.50
2023-05-13T08:58:27.271Z,4.30
2023-05-13T08:59:27.412Z,4.60
2023-05-13T09:00:27.432Z,4.60
2023-05-13T09:01:30.466Z,4.30
2023-05-13T09:02:29.390Z,4.50
2023-05-13T09:03:27.456Z,4.80
2023-05-13T09:04:28.228Z,4.40
2023-05-13T09:05:30.801Z,4.80
2023-05-13T09:06:27.453Z,4.90
2023-05-13T09:07:27.236Z,4.60
2023-05-13T09:08:28.472Z,4.10
2023-05-13T09:09:28.160Z,4.00
2023-05-13T09:10:28.297Z,3.80
2023-05-13T09:11:27.365Z,3.70
2023-05-13T09:12:58.197Z,4.00
2023-05-13T09:13:28.775Z,3.90
2023-05-13T09:14:28.788Z,3.70
2023-05-13T09:15:27.646Z,3.70
2023-05-13T09:16:27.309Z,3.90
2023-05-13T09:17:27.152Z,3.80
2023-05-13T09:18:28.263Z,3.80
2023-05-13T09:20:20.690Z,3.70
2023-05-13T09:21:39.314Z,3.70
2023-05-13T09:22:19.396Z,4.00
2023-05-13T09:23:19.996Z,3.60
2023-05-13T09:24:19.174Z,3.60
2023-05-13T09:25:23.129Z,3.60
2023-05-13T09:26:18.796Z,3.20
2023-05-13T09:27:18.833Z,3.70
2023-05-13T09:28:18.754Z,3.60
2023-05-13T09:29:18.730Z,4.00
2023-05-13T09:30:18.849Z,3.30
2023-05-13T09:31:18.810Z,3.60
2023-05-13T09:32:18.709Z,3.70
2023-05-13T09:33:18.777Z,3.70
2023-05-13T09:34:18.721Z,3.60
2023-05-13T09:35:18.826Z,3.30
2023-05-13T09:36:18.622Z,3.30
2023-05-13T09:37:18.609Z,3.30
2023-05-13T09:38:18.627Z,3.60
2023-05-13T09:39:18.638Z,3.50
2023-05-13T09:40:18.596Z,3.30
2023-05-13T09:41:18.572Z,3.90
2023-05-13T09:42:18.550Z,3.50
2023-05-13T09:43:18.554Z,3.50
2023-05-13T09:44:18.537Z,3.60
2023-05-13T09:45:18.526Z,3.30
2023-05-13T09:46:18.574Z,3.30
2023-05-13T09:47:18.531Z,3.40
2023-05-13T09:48:18.506Z,3.90
2023-05-13T09:49:18.530Z,3.20
2023-05-13T09:50:18.446Z,3.20
2023-05-13T09:51:18.521Z,3.20
2023-05-13T09:52:18.428Z,2.90
2023-05-13T09:53:18.451Z,2.90
2023-05-13T09:54:18.633Z,2.70
2023-05-13T09:55:18.529Z,2.60
2023-05-13T09:56:18.379Z,2.70
2023-05-13T09:57:18.390Z,3.30
2023-05-13T09:58:18.377Z,2.50
2023-05-13T09:59:18.433Z,2.90
2023-05-13T10:00:31.641Z,2.60
2023-05-13T10:01:19.394Z,3.10
2023-05-13T10:02:18.289Z,2.60
2023-05-13T10:03:18.484Z,3.20
2023-05-13T10:04:18.369Z,3.00
2023-05-13T10:05:18.269Z,2.80
2023-05-13T10:06:18.278Z,2.60
2023-05-13T10:07:18.211Z,2.90
2023-05-13T10:08:18.256Z,2.60
2023-05-13T10:09:18.466Z,2.40
2023-05-13T10:10:18.282Z,2.60
2023-05-13T10:11:18.170Z,2.40
2023-05-13T10:12:18.154Z,2.60
2023-05-13T10:13:18.157Z,3.50
2023-05-13T10:14:18.130Z,2.80
2023-05-13T10:15:18.127Z,2.60
2023-05-13T10:16:18.203Z,2.50
2023-05-13T10:17:18.193Z,2.60
2023-05-13T10:18:18.175Z,2.60
2023-05-13T10:19:18.165Z,2.40
2023-05-13T10:20:18.123Z,2.70
2023-05-13T10:21:18.029Z,2.90
2023-05-13T10:22:18.059Z,2.90
2023-05-13T10:23:18.057Z,2.30
2023-05-13T10:24:18.066Z,2.40
2023-05-13T10:25:17.987Z,2.70
2023-05-13T10:26:18.046Z,2.50
2023-05-13T10:27:18.103Z,2.40
2023-05-13T10:28:17.962Z,2.90
2023-05-13T10:29:17.962Z,2.70
2023-05-13T10:30:18.024Z,2.90
2023-05-13T10:31:17.956Z,2.70
2023-05-13T10:32:18.003Z,2.80
2023-05-13T10:33:17.888Z,2.90
2023-05-13T10:34:17.932Z,2.90
2023-05-13T10:35:17.862Z,2.80
2023-05-13T10:36:17.846Z,2.50
2023-05-13T10:37:17.884Z,3.00
2023-05-13T10:38:17.837Z,2.40
2023-05-13T10:39:17.824Z,2.80
2023-05-13T10:40:17.929Z,2.80
2023-05-13T10:41:17.784Z,3.00
2023-05-13T10:42:17.748Z,2.60
2023-05-13T10:43:17.755Z,2.90
2023-05-13T10:44:17.716Z,2.70
2023-05-13T10:45:17.700Z,2.60
2023-05-13T10:46:18.690Z,2.70
2023-05-13T10:47:17.715Z,2.70
2023-05-13T10:48:17.934Z,2.90
2023-05-13T10:49:17.637Z,2.50
2023-05-13T10:50:17.725Z,2.50
2023-05-13T10:51:19.989Z,2.40
2023-05-13T10:52:18.149Z,2.30
2023-05-13T10:53:17.623Z,2.80
2023-05-13T10:54:17.597Z,2.60
2023-05-13T10:55:17.570Z,2.80
2023-05-13T10:56:17.545Z,2.50
2023-05-13T10:57:18.422Z,2.60
2023-05-13T10:58:17.544Z,2.80
2023-05-13T10:59:17.603Z,2.40
2023-05-13T11:00:17.490Z,2.80
2023-05-13T11:01:17.632Z,2.50
2023-05-13T11:02:17.509Z,2.20
2023-05-13T11:03:17.670Z,2.70
2023-05-13T11:04:18.860Z,2.30
2023-05-13T11:05:17.443Z,2.50
2023-05-13T11:06:17.481Z,2.50
2023-05-13T11:07:17.450Z,2.90
2023-05-13T11:08:17.384Z,2.50
2023-05-13T11:09:17.423Z,2.70
2023-05-13T11:10:17.469Z,2.50
2023-05-13T11:11:17.414Z,2.70
2023-05-13T11:12:17.361Z,2.40
2023-05-13T11:13:17.369Z,2.60
2023-05-13T11:14:17.350Z,2.30
2023-05-13T11:15:17.408Z,2.90
2023-05-13T11:16:17.316Z,2.40
2023-05-13T11:17:17.302Z,2.50
2023-05-13T11:18:17.337Z,2.50
2023-05-13T11:19:18.070Z,2.80
2023-05-13T11:20:17.242Z,2.30
2023-05-13T11:21:17.217Z,2.30
2023-05-13T11:22:17.214Z,2.40
2023-05-13T11:23:17.250Z,2.70
2023-05-13T11:24:17.163Z,2.50
2023-05-13T11:25:17.185Z,2.40
2023-05-13T11:26:17.289Z,2.30
2023-05-13T11:27:17.131Z,2.60
2023-05-13T11:28:17.119Z,2.90
2023-05-13T11:29:17.197Z,2.50
2023-05-13T11:30:17.116Z,2.90
2023-05-13T11:31:17.109Z,2.70
2023-05-13T11:32:17.063Z,2.70
2023-05-13T11:33:17.094Z,2.60
2023-05-13T11:34:17.045Z,2.70
2023-05-13T11:35:17.006Z,2.50
2023-05-13T11:36:17.004Z,2.70
2023-05-13T11:37:16.995Z,2.70
2023-05-13T11:38:16.991Z,2.80
2023-05-13T11:39:17.012Z,2.50
2023-05-13T11:40:17.021Z,2.40
2023-05-13T11:41:16.940Z,2.70
2023-05-13T11:42:16.982Z,2.60
2023-05-13T11:43:16.921Z,2.60
2023-05-13T11:44:16.906Z,2.70
2023-05-13T11:45:16.883Z,2.20
2023-05-13T11:46:16.978Z,2.20
2023-05-13T11:47:16.953Z,2.50
2023-05-13T11:48:16.940Z,2.60
2023-05-13T11:49:16.820Z,2.20
2023-05-13T11:50:16.833Z,2.20
2023-05-13T11:51:16.805Z,2.50
2023-05-13T11:52:16.816Z,2.50
2023-05-13T11:53:16.792Z,2.20
2023-05-13T11:54:16.780Z,2.30
2023-05-13T11:55:16.753Z,2.20
2023-05-13T11:56:16.765Z,2.00
2023-05-13T11:57:18.121Z,2.10
2023-05-13T11:58:16.761Z,2.20
2023-05-13T11:59:16.721Z,2.10
2023-05-13T12:00:16.692Z,2.30
2023-05-13T12:01:16.697Z,2.20
2023-05-13T12:02:16.766Z,2.50
2023-05-13T12:03:16.797Z,2.00
2023-05-13T12:04:16.633Z,2.00
2023-05-13T12:05:16.634Z,2.30
2023-05-13T12:06:16.601Z,2.30
2023-05-13T12:07:16.595Z,2.50
2023-05-13T12:08:16.585Z,2.30
2023-05-13T12:09:16.573Z,2.30
2023-05-13T12:10:16.545Z,2.20
2023-05-13T12:11:16.529Z,2.30
2023-05-13T12:12:16.531Z,2.20
2023-05-13T12:13:16.547Z,2.30
2023-05-13T12:14:16.547Z,2.50
2023-05-13T12:15:16.566Z,2.70
2023-05-13T12:16:16.564Z,2.30
2023-05-13T12:17:16.461Z,2.50
2023-05-13T12:18:16.557Z,2.60
2023-05-13T12:19:16.602Z,3.00
2023-05-13T12:20:16.439Z,2.40
2023-05-13T12:21:16.402Z,2.20
2023-05-13T12:22:16.403Z,2.20
2023-05-13T12:23:16.388Z,2.20
2023-05-13T12:24:16.366Z,2.60
2023-05-13T12:25:16.379Z,2.50
2023-05-13T12:26:16.347Z,2.60
2023-05-13T12:27:16.359Z,2.10
2023-05-13T12:28:16.328Z,2.70
2023-05-13T12:29:16.331Z,2.20
2023-05-13T12:30:16.281Z,2.10
2023-05-13T12:31:16.357Z,2.40
2023-05-13T12:32:16.249Z,2.40
2023-05-13T12:33:16.249Z,2.60
2023-05-13T12:34:16.221Z,2.70
2023-05-13T12:35:16.203Z,2.60
2023-05-13T12:36:16.257Z,2.20
2023-05-13T12:37:16.241Z,2.60
2023-05-13T12:38:16.228Z,2.60
2023-05-13T12:39:16.159Z,2.80
2023-05-13T12:40:16.167Z,2.90
2023-05-13T12:41:16.150Z,2.70
2023-05-13T12:42:16.164Z,2.50
2023-05-13T12:43:16.201Z,2.70
2023-05-13T12:44:16.120Z,2.30
2023-05-13T12:45:16.107Z,2.40
2023-05-13T12:46:16.086Z,2.10
2023-05-13T12:47:16.067Z,2.30
2023-05-13T12:48:16.110Z,2.60
2023-05-13T12:49:16.031Z,2.40
2023-05-13T12:50:16.038Z,2.70
2023-05-13T12:51:16.022Z,2.20
2023-05-13T12:52:16.040Z,2.40
2023-05-13T12:53:16.003Z,2.40
2023-05-13T12:54:16.024Z,2.10
2023-05-13T12:55:15.968Z,2.30
2023-05-13T12:56:15.977Z,2.20
2023-05-13T12:57:15.973Z,2.20
2023-05-13T12:58:15.989Z,2.50
2023-05-13T12:59:17.810Z,2.20
2023-05-13T13:00:15.921Z,2.50
2023-05-13T13:01:15.937Z,2.50
2023-05-13T13:02:15.948Z,2.20
2023-05-13T13:03:15.984Z,2.50
2023-05-13T13:04:15.899Z,2.50
2023-05-13T13:05:15.929Z,2.90
2023-05-13T13:06:17.229Z,2.20
2023-05-13T13:07:16.619Z,2.90
2023-05-13T13:08:15.791Z,2.30
2023-05-13T13:09:16.829Z,2.30
2023-05-13T13:10:15.792Z,3.10
2023-05-13T13:11:15.765Z,2.70
2023-05-13T13:12:15.804Z,2.80
2023-05-13T13:13:15.744Z,3.30
2023-05-13T13:14:15.797Z,2.70